sensor_id;sensor_type;location;lat;lon;timestamp;temperature;humidity
43015;DHT22;28637;50.554;7.032;2023-02-15T00:01:54;1.90;99.90
43015;DHT22;28637;50.554;7.032;2023-02-15T00:06:55;1.90;99.90
43015;DHT22;28637;50.554;7.032;2023-02-15T00:11:55;1.90;99.90
43015;DHT22;28637;50.554;7.032;2023-02-15T00:16:56;1.90;99.90
43015;DHT22;28637;50.554;7.032;2023-02-15T00:22:00;1.90;99.90
43015;DHT22;28637;50.554;7.032;2023-02-15T00:27:00;1.80;99.90
43015;DHT22;28637;50.554;7.032;2023-02-15T00:32:01;1.80;99.90
43015;DHT22;28637;50.554;7.032;2023-02-15T00:37:02;1.80;99.90
43015;DHT22;28637;50.554;7.032;2023-02-15T00:42:02;1.70;99.90
43015;DHT22;28637;50.554;7.032;2023-02-15T00:47:03;1.70;99.90
43015;DHT22;28637;50.554;7.032;2023-02-15T00:52:04;1.80;99.90
43015;DHT22;28637;50.554;7.032;2023-02-15T00:57:04;1.90;99.90
43015;DHT22;28637;50.554;7.032;2023-02-15T01:02:05;1.90;99.90
43015;DHT22;28637;50.554;7.032;2023-02-15T01:07:07;2.00;99.90
43015;DHT22;28637;50.554;7.032;2023-02-15T01:12:07;1.90;99.90
43015;DHT22;28637;50.554;7.032;2023-02-15T01:17:09;1.80;99.90
43015;DHT22;28637;50.554;7.032;2023-02-15T01:22:09;1.90;99.90
43015;DHT22;28637;50.554;7.032;2023-02-15T01:27:10;1.90;99.90
43015;DHT22;28637;50.554;7.032;2023-02-15T01:32:11;2.00;99.90
43015;DHT22;28637;50.554;7.032;2023-02-15T01:37:11;2.10;99.90
43015;DHT22;28637;50.554;7.032;2023-02-15T01:42:12;2.10;99.90
43015;DHT22;28637;50.554;7.032;2023-02-15T01:52:23;2.00;99.90
43015;DHT22;28637;50.554;7.032;2023-02-15T01:57:27;2.00;99.90
43015;DHT22;28637;50.554;7.032;2023-02-15T02:02:29;2.00;99.90
43015;DHT22;28637;50.554;7.032;2023-02-15T02:07:33;1.90;99.90
43015;DHT22;28637;50.554;7.032;2023-02-15T02:12:35;1.90;99.90
43015;DHT22;28637;50.554;7.032;2023-02-15T02:44:19;1.90;99.90
43015;DHT22;28637;50.554;7.032;2023-02-15T02:49:30;1.80;99.90
43015;DHT22;28637;50.554;7.032;2023-02-15T02:54:33;1.70;99.90
43015;DHT22;28637;50.554;7.032;2023-02-15T02:59:40;1.70;99.90
43015;DHT22;28637;50.554;7.032;2023-02-15T03:04:45;1.70;99.90
43015;DHT22;28637;50.554;7.032;2023-02-15T03:09:52;1.80;99.90
43015;DHT22;28637;50.554;7.032;2023-02-15T03:14:57;1.80;99.90
43015;DHT22;28637;50.554;7.032;2023-02-15T03:20:04;1.80;99.90
43015;DHT22;28637;50.554;7.032;2023-02-15T03:25:11;1.80;99.90
43015;DHT22;28637;50.554;7.032;2023-02-15T03:30:13;1.80;99.90
43015;DHT22;28637;50.554;7.032;2023-02-15T03:35:15;1.70;99.90
43015;DHT22;28637;50.554;7.032;2023-02-15T03:40:20;1.70;99.90
43015;DHT22;28637;50.554;7.032;2023-02-15T03:45:42;1.60;99.90
43015;DHT22;28637;50.554;7.032;2023-02-15T03:50:58;1.60;99.90
43015;DHT22;28637;50.554;7.032;2023-02-15T03:56:18;1.60;99.90
43015;DHT22;28637;50.554;7.032;2023-02-15T04:01:27;1.60;99.90
43015;DHT22;28637;50.554;7.032;2023-02-15T04:06:50;1.60;99.90
43015;DHT22;28637;50.554;7.032;2023-02-15T04:11:51;1.60;99.90
43015;DHT22;28637;50.554;7.032;2023-02-15T04:16:52;1.60;99.90
43015;DHT22;28637;50.554;7.032;2023-02-15T04:21:52;1.70;99.90
43015;DHT22;28637;50.554;7.032;2023-02-15T04:27:11;1.60;99.90
43015;DHT22;28637;50.554;7.032;2023-02-15T04:32:12;1.60;99.90
43015;DHT22;28637;50.554;7.032;2023-02-15T04:37:13;1.40;99.90
43015;DHT22;28637;50.554;7.032;2023-02-15T04:42:13;1.40;99.90
43015;DHT22;28637;50.554;7.032;2023-02-15T04:47:14;1.50;99.90
43015;DHT22;28637;50.554;7.032;2023-02-15T04:52:15;1.50;99.90
43015;DHT22;28637;50.554;7.032;2023-02-15T04:57:17;1.50;99.90
43015;DHT22;28637;50.554;7.032;2023-02-15T05:02:18;1.50;99.90
43015;DHT22;28637;50.554;7.032;2023-02-15T05:07:19;1.40;99.90
43015;DHT22;28637;50.554;7.032;2023-02-15T05:12:20;1.40;99.90
43015;DHT22;28637;50.554;7.032;2023-02-15T05:17:21;1.30;99.90
43015;DHT22;28637;50.554;7.032;2023-02-15T05:22:21;1.40;99.90
43015;DHT22;28637;50.554;7.032;2023-02-15T05:27:22;1.40;99.90
43015;DHT22;28637;50.554;7.032;2023-02-15T05:32:42;1.50;99.90
43015;DHT22;28637;50.554;7.032;2023-02-15T05:37:42;1.50;99.90
43015;DHT22;28637;50.554;7.032;2023-02-15T05:42:43;1.50;99.90
43015;DHT22;28637;50.554;7.032;2023-02-15T05:47:44;1.40;99.90
43015;DHT22;28637;50.554;7.032;2023-02-15T05:52:45;1.30;99.90
43015;DHT22;28637;50.554;7.032;2023-02-15T05:57:46;1.20;99.90
43015;DHT22;28637;50.554;7.032;2023-02-15T06:02:46;1.00;99.90
43015;DHT22;28637;50.554;7.032;2023-02-15T06:07:47;1.00;99.90
43015;DHT22;28637;50.554;7.032;2023-02-15T06:12:48;1.00;99.90
43015;DHT22;28637;50.554;7.032;2023-02-15T06:17:49;1.10;99.90
43015;DHT22;28637;50.554;7.032;2023-02-15T06:22:49;1.10;99.90
43015;DHT22;28637;50.554;7.032;2023-02-15T06:27:50;1.10;99.90
43015;DHT22;28637;50.554;7.032;2023-02-15T06:32:51;1.10;99.90
43015;DHT22;28637;50.554;7.032;2023-02-15T06:37:51;1.00;99.90
43015;DHT22;28637;50.554;7.032;2023-02-15T06:42:52;0.80;99.90
43015;DHT22;28637;50.554;7.032;2023-02-15T06:47:52;0.70;99.90
43015;DHT22;28637;50.554;7.032;2023-02-15T06:52:57;0.70;99.90
43015;DHT22;28637;50.554;7.032;2023-02-15T06:57:57;0.90;99.90
43015;DHT22;28637;50.554;7.032;2023-02-15T07:02:58;0.90;99.90
43015;DHT22;28637;50.554;7.032;2023-02-15T07:08:00;0.80;99.90
43015;DHT22;28637;50.554;7.032;2023-02-15T07:13:00;0.70;99.90
43015;DHT22;28637;50.554;7.032;2023-02-15T07:18:01;0.70;99.90
43015;DHT22;28637;50.554;7.032;2023-02-15T07:23:03;0.70;99.90
43015;DHT22;28637;50.554;7.032;2023-02-15T07:28:04;0.60;99.90
43015;DHT22;28637;50.554;7.032;2023-02-15T07:33:05;0.70;99.90
43015;DHT22;28637;50.554;7.032;2023-02-15T07:38:24;0.90;99.90
43015;DHT22;28637;50.554;7.032;2023-02-15T07:43:27;1.10;99.90
43015;DHT22;28637;50.554;7.032;2023-02-15T07:48:28;1.30;99.90
43015;DHT22;28637;50.554;7.032;2023-02-15T07:53:28;1.30;99.90
43015;DHT22;28637;50.554;7.032;2023-02-15T07:58:29;1.40;99.90
43015;DHT22;28637;50.554;7.032;2023-02-15T08:03:49;1.60;99.90
43015;DHT22;28637;50.554;7.032;2023-02-15T08:08:49;1.60;99.90
43015;DHT22;28637;50.554;7.032;2023-02-15T08:18:55;1.90;99.90
43015;DHT22;28637;50.554;7.032;2023-02-15T08:23:57;2.00;99.90
43015;DHT22;28637;50.554;7.032;2023-02-15T08:28:59;2.10;99.90
43015;DHT22;28637;50.554;7.032;2023-02-15T08:33:59;2.30;99.90
43015;DHT22;28637;50.554;7.032;2023-02-15T08:39:02;2.30;99.90
43015;DHT22;28637;50.554;7.032;2023-02-15T08:44:06;2.50;99.90
43015;DHT22;28637;50.554;7.032;2023-02-15T08:49:07;2.60;99.90
43015;DHT22;28637;50.554;7.032;2023-02-15T08:54:14;2.80;99.90
43015;DHT22;28637;50.554;7.032;2023-02-15T08:59:17;2.80;99.90
43015;DHT22;28637;50.554;7.032;2023-02-15T09:04:19;2.90;99.90
43015;DHT22;28637;50.554;7.032;2023-02-15T09:09:20;3.00;99.90
43015;DHT22;28637;50.554;7.032;2023-02-15T09:14:21;3.20;99.90
43015;DHT22;28637;50.554;7.032;2023-02-15T09:19:24;3.30;99.90
43015;DHT22;28637;50.554;7.032;2023-02-15T09:24:25;3.50;99.90
43015;DHT22;28637;50.554;7.032;2023-02-15T09:29:25;3.60;99.90
43015;DHT22;28637;50.554;7.032;2023-02-15T09:34:26;3.90;99.90
43015;DHT22;28637;50.554;7.032;2023-02-15T09:39:27;4.40;99.90
43015;DHT22;28637;50.554;7.032;2023-02-15T10:11:22;7.70;99.90
43015;DHT22;28637;50.554;7.032;2023-02-15T10:16:50;7.90;99.90
43015;DHT22;28637;50.554;7.032;2023-02-15T10:22:16;8.30;99.90
43015;DHT22;28637;50.554;7.032;2023-02-15T10:27:20;8.50;99.90
43015;DHT22;28637;50.554;7.032;2023-02-15T10:32:28;8.80;99.90
43015;DHT22;28637;50.554;7.032;2023-02-15T10:43:33;9.60;99.90
43015;DHT22;28637;50.554;7.032;2023-02-15T10:49:00;9.90;99.90
43015;DHT22;28637;50.554;7.032;2023-02-15T10:54:05;10.10;99.90
43015;DHT22;28637;50.554;7.032;2023-02-15T10:59:47;10.40;99.90
43015;DHT22;28637;50.554;7.032;2023-02-15T11:10:43;10.50;99.90
43015;DHT22;28637;50.554;7.032;2023-02-15T11:15:52;10.50;99.90
43015;DHT22;28637;50.554;7.032;2023-02-15T11:21:01;10.80;99.90
43015;DHT22;28637;50.554;7.032;2023-02-15T11:26:11;11.10;99.90
43015;DHT22;28637;50.554;7.032;2023-02-15T11:31:19;11.70;99.90
43015;DHT22;28637;50.554;7.032;2023-02-15T11:36:37;11.90;99.90
43015;DHT22;28637;50.554;7.032;2023-02-15T11:41:41;12.10;99.90
43015;DHT22;28637;50.554;7.032;2023-02-15T11:46:44;12.00;99.90
43015;DHT22;28637;50.554;7.032;2023-02-15T11:51:44;12.10;99.90
43015;DHT22;28637;50.554;7.032;2023-02-15T11:56:45;12.50;99.90
43015;DHT22;28637;50.554;7.032;2023-02-15T12:01:46;12.90;99.90
43015;DHT22;28637;50.554;7.032;2023-02-15T12:06:59;13.50;99.80
43015;DHT22;28637;50.554;7.032;2023-02-15T12:12:24;14.00;96.60
43015;DHT22;28637;50.554;7.032;2023-02-15T12:22:53;14.50;94.70
43015;DHT22;28637;50.554;7.032;2023-02-15T12:27:55;14.50;93.80
43015;DHT22;28637;50.554;7.032;2023-02-15T12:33:23;14.80;92.80
43015;DHT22;28637;50.554;7.032;2023-02-15T12:38:27;14.70;93.40
43015;DHT22;28637;50.554;7.032;2023-02-15T12:43:34;15.30;92.10
43015;DHT22;28637;50.554;7.032;2023-02-15T12:48:35;15.60;90.30
43015;DHT22;28637;50.554;7.032;2023-02-15T12:53:36;15.90;88.70
43015;DHT22;28637;50.554;7.032;2023-02-15T12:58:39;16.30;85.80
43015;DHT22;28637;50.554;7.032;2023-02-15T13:04:03;16.50;83.40
43015;DHT22;28637;50.554;7.032;2023-02-15T13:14:32;16.90;79.30
43015;DHT22;28637;50.554;7.032;2023-02-15T13:19:51;16.90;78.50
43015;DHT22;28637;50.554;7.032;2023-02-15T13:24:56;17.10;78.20
43015;DHT22;28637;50.554;7.032;2023-02-15T13:29:59;17.70;74.80
43015;DHT22;28637;50.554;7.032;2023-02-15T13:35:04;17.80;73.60
43015;DHT22;28637;50.554;7.032;2023-02-15T13:40:15;18.20;74.50
43015;DHT22;28637;50.554;7.032;2023-02-15T13:45:40;18.50;73.10
43015;DHT22;28637;50.554;7.032;2023-02-15T13:50:55;19.10;71.40
43015;DHT22;28637;50.554;7.032;2023-02-15T14:17:40;20.80;63.60
43015;DHT22;28637;50.554;7.032;2023-02-15T14:23:34;20.90;63.00
43015;DHT22;28637;50.554;7.032;2023-02-15T14:28:25;21.00;61.60
43015;DHT22;28637;50.554;7.032;2023-02-15T14:33:35;21.40;60.20
43015;DHT22;28637;50.554;7.032;2023-02-15T14:39:01;21.80;58.70
43015;DHT22;28637;50.554;7.032;2023-02-15T14:49:32;21.80;59.20
43015;DHT22;28637;50.554;7.032;2023-02-15T14:59:49;21.40;58.10
43015;DHT22;28637;50.554;7.032;2023-02-15T15:04:56;20.60;60.30
43015;DHT22;28637;50.554;7.032;2023-02-15T15:10:05;19.80;61.30
43015;DHT22;28637;50.554;7.032;2023-02-15T15:25:49;16.80;68.80
43015;DHT22;28637;50.554;7.032;2023-02-15T15:30:52;16.30;71.20
43015;DHT22;28637;50.554;7.032;2023-02-15T15:41:56;15.30;74.70
43015;DHT22;28637;50.554;7.032;2023-02-15T15:47:13;15.00;75.70
43015;DHT22;28637;50.554;7.032;2023-02-15T15:52:21;14.50;77.60
43015;DHT22;28637;50.554;7.032;2023-02-15T15:57:29;14.10;77.90
43015;DHT22;28637;50.554;7.032;2023-02-15T16:02:30;13.90;79.20
43015;DHT22;28637;50.554;7.032;2023-02-15T16:07:31;13.40;80.50
43015;DHT22;28637;50.554;7.032;2023-02-15T16:12:34;13.10;82.40
43015;DHT22;28637;50.554;7.032;2023-02-15T16:17:35;12.80;84.50
43015;DHT22;28637;50.554;7.032;2023-02-15T16:22:36;12.50;85.60
43015;DHT22;28637;50.554;7.032;2023-02-15T16:27:40;12.20;86.70
43015;DHT22;28637;50.554;7.032;2023-02-15T16:32:44;12.00;88.50
43015;DHT22;28637;50.554;7.032;2023-02-15T16:37:44;11.80;91.20
43015;DHT22;28637;50.554;7.032;2023-02-15T16:42:46;11.70;90.80
43015;DHT22;28637;50.554;7.032;2023-02-15T16:47:48;11.50;91.70
43015;DHT22;28637;50.554;7.032;2023-02-15T16:52:51;11.30;92.30
43015;DHT22;28637;50.554;7.032;2023-02-15T16:57:59;11.20;92.60
43015;DHT22;28637;50.554;7.032;2023-02-15T17:03:05;11.10;93.00
43015;DHT22;28637;50.554;7.032;2023-02-15T17:08:19;11.00;92.30
43015;DHT22;28637;50.554;7.032;2023-02-15T17:13:25;10.90;93.40
43015;DHT22;28637;50.554;7.032;2023-02-15T17:18:32;10.60;96.70
43015;DHT22;28637;50.554;7.032;2023-02-15T17:23:34;9.80;99.90
43015;DHT22;28637;50.554;7.032;2023-02-15T17:28:35;9.50;99.90
43015;DHT22;28637;50.554;7.032;2023-02-15T17:33:37;9.40;99.90
43015;DHT22;28637;50.554;7.032;2023-02-15T17:38:40;9.30;99.90
43015;DHT22;28637;50.554;7.032;2023-02-15T17:43:59;9.50;99.90
43015;DHT22;28637;50.554;7.032;2023-02-15T17:49:01;9.50;99.90
43015;DHT22;28637;50.554;7.032;2023-02-15T17:54:02;9.60;99.90
43015;DHT22;28637;50.554;7.032;2023-02-15T17:59:21;9.60;99.90
43015;DHT22;28637;50.554;7.032;2023-02-15T18:04:24;9.30;99.90
43015;DHT22;28637;50.554;7.032;2023-02-15T18:09:43;9.00;99.90
43015;DHT22;28637;50.554;7.032;2023-02-15T18:15:04;8.80;99.90
43015;DHT22;28637;50.554;7.032;2023-02-15T18:20:30;8.80;99.90
43015;DHT22;28637;50.554;7.032;2023-02-15T18:25:28;8.60;99.90
43015;DHT22;28637;50.554;7.032;2023-02-15T18:30:29;8.50;99.90
43015;DHT22;28637;50.554;7.032;2023-02-15T18:35:31;8.20;99.90
43015;DHT22;28637;50.554;7.032;2023-02-15T18:40:32;8.20;99.90
43015;DHT22;28637;50.554;7.032;2023-02-15T18:45:33;8.00;99.90
43015;DHT22;28637;50.554;7.032;2023-02-15T18:50:37;7.90;99.90
43015;DHT22;28637;50.554;7.032;2023-02-15T18:55:38;7.80;99.90
43015;DHT22;28637;50.554;7.032;2023-02-15T19:00:38;7.60;99.90
43015;DHT22;28637;50.554;7.032;2023-02-15T19:05:41;7.50;99.90
43015;DHT22;28637;50.554;7.032;2023-02-15T19:10:44;7.50;99.90
43015;DHT22;28637;50.554;7.032;2023-02-15T19:15:44;7.30;99.90
43015;DHT22;28637;50.554;7.032;2023-02-15T19:20:45;7.20;99.90
43015;DHT22;28637;50.554;7.032;2023-02-15T19:25:49;7.60;99.90
43015;DHT22;28637;50.554;7.032;2023-02-15T19:30:50;7.40;99.90
43015;DHT22;28637;50.554;7.032;2023-02-15T19:35:52;7.30;99.90
43015;DHT22;28637;50.554;7.032;2023-02-15T19:41:00;7.20;99.90
43015;DHT22;28637;50.554;7.032;2023-02-15T19:46:03;7.00;99.90
43015;DHT22;28637;50.554;7.032;2023-02-15T19:51:04;6.80;99.90
43015;DHT22;28637;50.554;7.032;2023-02-15T19:56:13;6.70;99.90
43015;DHT22;28637;50.554;7.032;2023-02-15T20:01:17;6.60;99.90
43015;DHT22;28637;50.554;7.032;2023-02-15T20:06:18;6.70;99.90
43015;DHT22;28637;50.554;7.032;2023-02-15T20:11:19;6.60;99.90
43015;DHT22;28637;50.554;7.032;2023-02-15T20:16:21;6.50;99.90
43015;DHT22;28637;50.554;7.032;2023-02-15T20:21:21;6.40;99.90
43015;DHT22;28637;50.554;7.032;2023-02-15T20:26:23;6.60;99.90
43015;DHT22;28637;50.554;7.032;2023-02-15T20:31:28;6.60;99.90
43015;DHT22;28637;50.554;7.032;2023-02-15T20:36:29;6.60;99.90
43015;DHT22;28637;50.554;7.032;2023-02-15T20:41:30;6.60;99.90
43015;DHT22;28637;50.554;7.032;2023-02-15T20:46:47;6.60;99.90
43015;DHT22;28637;50.554;7.032;2023-02-15T20:51:48;6.70;99.90
43015;DHT22;28637;50.554;7.032;2023-02-15T20:56:49;6.80;99.90
43015;DHT22;28637;50.554;7.032;2023-02-15T21:01:54;6.90;99.90
43015;DHT22;28637;50.554;7.032;2023-02-15T21:06:57;6.80;99.90
43015;DHT22;28637;50.554;7.032;2023-02-15T21:11:59;6.90;99.90
43015;DHT22;28637;50.554;7.032;2023-02-15T21:17:02;7.00;99.90
43015;DHT22;28637;50.554;7.032;2023-02-15T21:22:03;6.90;99.90
43015;DHT22;28637;50.554;7.032;2023-02-15T21:27:08;6.90;99.90
43015;DHT22;28637;50.554;7.032;2023-02-15T21:32:09;6.90;99.90
43015;DHT22;28637;50.554;7.032;2023-02-15T21:37:29;6.80;99.90
43015;DHT22;28637;50.554;7.032;2023-02-15T21:42:30;6.80;99.90
43015;DHT22;28637;50.554;7.032;2023-02-15T21:47:49;6.80;99.90
43015;DHT22;28637;50.554;7.032;2023-02-15T21:52:51;6.90;99.90
43015;DHT22;28637;50.554;7.032;2023-02-15T21:57:52;6.90;99.90
43015;DHT22;28637;50.554;7.032;2023-02-15T22:02:55;6.60;99.90
43015;DHT22;28637;50.554;7.032;2023-02-15T22:07:58;6.40;99.90
43015;DHT22;28637;50.554;7.032;2023-02-15T22:12:59;6.20;99.90
43015;DHT22;28637;50.554;7.032;2023-02-15T22:18:01;6.00;99.90
43015;DHT22;28637;50.554;7.032;2023-02-15T22:23:01;5.90;99.90
43015;DHT22;28637;50.554;7.032;2023-02-15T22:28:02;6.10;99.90
43015;DHT22;28637;50.554;7.032;2023-02-15T22:33:03;6.30;99.90
43015;DHT22;28637;50.554;7.032;2023-02-15T22:38:04;6.40;99.90
43015;DHT22;28637;50.554;7.032;2023-02-15T22:43:05;6.40;99.90
43015;DHT22;28637;50.554;7.032;2023-02-15T22:48:10;6.30;99.90
43015;DHT22;28637;50.554;7.032;2023-02-15T22:53:11;6.10;99.90
43015;DHT22;28637;50.554;7.032;2023-02-15T22:58:17;6.20;99.90
43015;DHT22;28637;50.554;7.032;2023-02-15T23:03:25;6.20;99.90
43015;DHT22;28637;50.554;7.032;2023-02-15T23:08:26;6.10;99.90
43015;DHT22;28637;50.554;7.032;2023-02-15T23:13:30;6.00;99.90
43015;DHT22;28637;50.554;7.032;2023-02-15T23:18:43;6.00;99.90
43015;DHT22;28637;50.554;7.032;2023-02-15T23:23:46;5.90;99.90
43015;DHT22;28637;50.554;7.032;2023-02-15T23:28:48;5.80;99.90
43015;DHT22;28637;50.554;7.032;2023-02-15T23:33:49;5.70;99.90
43015;DHT22;28637;50.554;7.032;2023-02-15T23:38:52;5.60;99.90
43015;DHT22;28637;50.554;7.032;2023-02-15T23:43:58;5.30;99.90
43015;DHT22;28637;50.554;7.032;2023-02-15T23:48:59;5.30;99.90
43015;DHT22;28637;50.554;7.032;2023-02-15T23:54:00;5.10;99.90
43015;DHT22;28637;50.554;7.032;2023-02-15T23:59:01;5.10;99.90
